createdAt,value
2019-03-20T00:00:21.236Z,34.80
2019-03-20T00:02:49.763Z,33.67
2019-03-20T00:05:18.253Z,44.73
2019-03-20T00:07:46.780Z,34.73
2019-03-20T00:10:15.261Z,37.20
2019-03-20T00:12:43.760Z,34.13
2019-03-20T00:15:31.531Z,49.60
2019-03-20T00:18:00.040Z,40.37
2019-03-20T00:20:28.536Z,40.23
2019-03-20T00:22:56.979Z,38.07
2019-03-20T00:25:25.408Z,33.90
2019-03-20T00:27:53.866Z,43.73
2019-03-20T00:30:22.354Z,37.00
2019-03-20T00:32:56.724Z,34.33
2019-03-20T00:35:25.167Z,33.30
2019-03-20T00:37:53.587Z,43.10
2019-03-20T00:40:41.440Z,32.80
2019-03-20T00:43:29.191Z,31.93
2019-03-20T00:45:57.631Z,36.80
2019-03-20T00:48:26.055Z,35.57
2019-03-20T00:50:54.559Z,48.20
2019-03-20T00:53:22.999Z,31.80
2019-03-20T00:56:04.205Z,37.50
2019-03-20T00:58:32.618Z,31.60
2019-03-20T01:01:01.081Z,32.83
2019-03-20T01:03:35.503Z,42.63
2019-03-20T01:06:23.282Z,29.60
2019-03-20T01:08:51.710Z,39.10
2019-03-20T01:11:20.129Z,39.97
2019-03-20T01:13:48.910Z,34.90
2019-03-20T01:16:36.762Z,28.43
2019-03-20T01:19:17.517Z,34.97
2019-03-20T01:21:45.965Z,39.87
2019-03-20T01:24:14.404Z,35.07
2019-03-20T01:26:42.856Z,37.17
2019-03-20T01:29:30.645Z,32.53
2019-03-20T01:31:59.102Z,43.93
2019-03-20T01:34:27.552Z,36.23
2019-03-20T01:36:56.011Z,39.87
2019-03-20T01:39:24.471Z,33.93
2019-03-20T01:41:52.946Z,33.40
2019-03-20T01:44:21.422Z,47.03
2019-03-20T01:47:09.205Z,34.03
2019-03-20T01:49:37.618Z,45.13
2019-03-20T01:52:06.080Z,37.07
2019-03-20T01:54:34.556Z,33.77
2019-03-20T01:57:03.001Z,41.50
2019-03-20T01:59:31.424Z,41.83
2019-03-20T02:01:59.929Z,31.57
2019-03-20T02:04:28.344Z,31.63
2019-03-20T02:07:16.127Z,38.60
2019-03-20T02:09:56.352Z,34.87
2019-03-20T02:12:24.946Z,39.27
2019-03-20T02:15:13.471Z,44.27
2019-03-20T02:17:41.930Z,36.10
2019-03-20T02:20:12.798Z,42.20
2019-03-20T02:22:41.214Z,32.40
2019-03-20T02:25:29.004Z,39.90
2019-03-20T02:27:57.507Z,33.43
2019-03-20T02:30:25.961Z,35.27
2019-03-20T02:33:13.725Z,36.90
2019-03-20T02:35:51.439Z,35.13
2019-03-20T02:38:12.391Z,27.77
2019-03-20T02:41:00.222Z,48.63
2019-03-20T02:43:48.001Z,28.20
2019-03-20T02:46:16.459Z,30.20
2019-03-20T02:48:45.188Z,35.50
2019-03-20T02:51:13.999Z,30.20
2019-03-20T02:53:47.488Z,36.40
2019-03-20T02:56:15.915Z,34.20
2019-03-20T02:58:44.454Z,38.53
2019-03-20T03:01:12.871Z,35.30
2019-03-20T03:06:36.839Z,37.70
2019-03-20T03:09:07.592Z,38.47
2019-03-20T03:11:55.393Z,31.53
2019-03-20T03:14:23.875Z,40.52
2019-03-20T03:16:52.314Z,32.47
2019-03-20T03:19:20.766Z,28.40
2019-03-20T03:21:56.881Z,30.63
2019-03-20T03:24:25.329Z,38.90
2019-03-20T03:26:53.832Z,32.20
2019-03-20T03:29:22.275Z,37.60
2019-03-20T03:31:50.715Z,36.77
2019-03-20T03:34:21.902Z,31.73
2019-03-20T03:36:50.380Z,27.87
2019-03-20T03:39:38.173Z,30.30
2019-03-20T03:42:06.609Z,37.90
2019-03-20T03:44:54.384Z,33.87
2019-03-20T03:47:22.827Z,35.60
2019-03-20T03:49:51.460Z,30.30
2019-03-20T03:52:19.900Z,26.87
2019-03-20T03:54:48.411Z,37.33
2019-03-20T03:57:16.907Z,29.27
2019-03-20T03:59:45.332Z,36.00
2019-03-20T04:02:33.119Z,30.67
2019-03-20T04:05:01.551Z,52.53
2019-03-20T04:07:32.727Z,31.60
2019-03-20T04:10:10.209Z,30.50
2019-03-20T04:15:52.865Z,35.30
2019-03-20T04:18:33.593Z,28.67
2019-03-20T04:21:14.590Z,28.50
2019-03-20T04:23:43.073Z,42.73
2019-03-20T04:26:11.603Z,37.43
2019-03-20T04:28:40.028Z,26.50
2019-03-20T04:31:27.815Z,32.30
2019-03-20T04:34:15.579Z,33.80
2019-03-20T04:36:56.589Z,35.77
2019-03-20T04:39:25.115Z,42.07
2019-03-20T04:42:12.932Z,39.37
2019-03-20T04:44:42.381Z,37.23
2019-03-20T04:47:30.144Z,40.67
2019-03-20T04:49:58.594Z,30.67
2019-03-20T04:52:27.020Z,37.13
2019-03-20T04:54:55.481Z,30.80
2019-03-20T04:57:23.894Z,34.50
2019-03-20T04:59:52.348Z,28.73
2019-03-20T05:02:20.856Z,27.23
2019-03-20T05:04:49.279Z,37.37
2019-03-20T05:07:17.729Z,32.70
2019-03-20T05:09:46.144Z,35.67
2019-03-20T05:12:33.935Z,32.40
2019-03-20T05:15:02.532Z,31.30
2019-03-20T05:17:30.956Z,28.90
2019-03-20T05:19:59.405Z,28.20
2019-03-20T05:22:27.836Z,40.27
2019-03-20T05:24:56.295Z,38.83
2019-03-20T05:27:24.714Z,29.73
2019-03-20T05:29:53.238Z,37.73
2019-03-20T05:32:41.016Z,31.70
2019-03-20T05:35:09.541Z,45.90
2019-03-20T05:37:37.977Z,33.57
2019-03-20T05:40:09.468Z,39.27
2019-03-20T05:42:37.925Z,33.53
2019-03-20T05:45:14.127Z,38.63
2019-03-20T05:47:42.573Z,38.17
2019-03-20T05:50:14.886Z,51.03
2019-03-20T05:52:43.386Z,32.87
2019-03-20T05:55:12.357Z,35.37
2019-03-20T05:57:40.869Z,33.43
2019-03-20T06:00:15.699Z,33.43
2019-03-20T06:02:56.644Z,39.00
2019-03-20T06:05:37.209Z,31.20
2019-03-20T06:08:05.728Z,38.13
2019-03-20T06:10:34.139Z,38.93
2019-03-20T06:13:02.608Z,33.53
2019-03-20T06:15:50.451Z,29.00
2019-03-20T06:18:18.915Z,37.87
2019-03-20T06:21:06.704Z,31.57
2019-03-20T06:23:35.119Z,51.27
2019-03-20T06:26:03.636Z,35.20
2019-03-20T06:28:32.217Z,38.63
2019-03-20T06:31:00.731Z,37.70
2019-03-20T06:33:29.171Z,34.53
2019-03-20T06:35:57.625Z,35.50
2019-03-20T06:38:26.107Z,39.23
2019-03-20T06:41:13.904Z,32.20
2019-03-20T06:43:48.291Z,27.80
2019-03-20T06:46:16.734Z,35.07
2019-03-20T06:48:45.159Z,37.03
2019-03-20T06:51:13.604Z,48.63
2019-03-20T06:53:42.044Z,34.80
2019-03-20T06:56:10.604Z,39.17
2019-03-20T06:58:39.191Z,40.00
2019-03-20T07:01:16.521Z,31.37
2019-03-20T07:03:50.966Z,41.97
2019-03-20T07:06:40.288Z,35.27
2019-03-20T07:09:29.572Z,36.53
2019-03-20T07:11:58.015Z,39.60
2019-03-20T07:14:27.337Z,40.33
2019-03-20T07:16:55.839Z,37.37
2019-03-20T07:19:24.257Z,33.13
2019-03-20T07:21:52.701Z,38.23
2019-03-20T07:24:21.123Z,29.10
2019-03-20T07:26:49.586Z,37.67
2019-03-20T07:29:18.004Z,39.17
2019-03-20T07:31:46.455Z,34.73
2019-03-20T07:34:14.898Z,36.20
2019-03-20T07:36:43.364Z,43.23
2019-03-20T07:39:11.849Z,34.43
2019-03-20T07:41:40.339Z,32.40
2019-03-20T07:44:08.805Z,32.70
2019-03-20T07:46:56.572Z,33.60
2019-03-20T07:49:25.170Z,36.97
2019-03-20T07:51:53.687Z,35.67
2019-03-20T07:54:22.111Z,32.37
2019-03-20T07:56:50.537Z,35.53
2019-03-20T07:59:18.974Z,48.73
2019-03-20T08:02:06.787Z,39.37
2019-03-20T08:04:35.211Z,46.40
2019-03-20T08:07:03.651Z,49.03
2019-03-20T08:09:37.992Z,43.30
2019-03-20T08:12:25.868Z,44.20
2019-03-20T08:14:54.310Z,42.27
2019-03-20T08:17:22.733Z,41.93
2019-03-20T08:19:51.229Z,39.70
2019-03-20T08:22:19.680Z,57.00
2019-03-20T08:24:48.150Z,42.17
2019-03-20T08:27:16.604Z,45.37
2019-03-20T08:29:45.069Z,49.97
2019-03-20T08:32:13.555Z,53.87
2019-03-20T08:34:42.024Z,53.23
2019-03-20T08:37:10.453Z,44.70
2019-03-20T08:39:38.892Z,42.53
2019-03-20T08:42:07.327Z,40.83
2019-03-20T08:44:37.313Z,47.97
2019-03-20T08:47:05.735Z,43.83
2019-03-20T08:49:34.184Z,59.27
2019-03-20T08:52:02.791Z,45.50
2019-03-20T08:54:31.347Z,48.40
2019-03-20T08:56:59.798Z,45.83
2019-03-20T08:59:28.229Z,42.50
2019-03-20T09:02:16.028Z,43.40
2019-03-20T09:04:44.445Z,49.87
2019-03-20T09:07:12.896Z,45.40
2019-03-20T09:09:41.337Z,42.17
2019-03-20T09:12:09.759Z,40.33
2019-03-20T09:14:38.203Z,39.10
2019-03-20T09:17:06.623Z,52.80
2019-03-20T09:19:35.087Z,41.73
2019-03-20T09:22:03.512Z,50.47
2019-03-20T09:24:32.106Z,40.97
2019-03-20T09:27:00.564Z,38.17
2019-03-20T09:29:35.938Z,45.33
2019-03-20T09:31:59.248Z,48.97
2019-03-20T09:34:28.945Z,44.10
2019-03-20T09:36:57.373Z,49.50
2019-03-20T09:39:45.245Z,55.33
2019-03-20T09:42:13.691Z,47.60
2019-03-20T09:44:42.147Z,43.20
2019-03-20T09:47:10.579Z,46.50
2019-03-20T09:49:39.304Z,47.10
2019-03-20T09:52:07.731Z,47.47
2019-03-20T09:54:36.253Z,49.17
2019-03-20T09:57:04.736Z,54.27
2019-03-20T09:59:33.157Z,43.93
2019-03-20T10:02:02.917Z,46.10
2019-03-20T10:04:31.599Z,49.93
2019-03-20T10:07:00.624Z,44.00
2019-03-20T10:09:29.091Z,52.47
2019-03-20T10:11:57.626Z,45.00
2019-03-20T10:14:45.473Z,49.90
2019-03-20T10:17:13.995Z,50.80
2019-03-20T10:19:42.502Z,48.13
2019-03-20T10:22:10.963Z,58.73
2019-03-20T10:24:39.567Z,41.20
2019-03-20T10:27:08.023Z,51.10
2019-03-20T10:29:36.447Z,45.40
2019-03-20T10:32:04.913Z,47.50
2019-03-20T10:34:39.430Z,40.27
2019-03-20T10:37:03.538Z,54.87
2019-03-20T10:39:51.415Z,44.20
2019-03-20T10:42:19.879Z,46.63
2019-03-20T10:45:09.144Z,40.03
2019-03-20T10:47:37.678Z,44.40
2019-03-20T10:50:09.190Z,45.17
2019-03-20T10:52:37.647Z,49.97
2019-03-20T10:55:07.986Z,45.57
2019-03-20T10:57:36.419Z,42.20
2019-03-20T11:00:25.748Z,38.97
2019-03-20T11:02:54.347Z,38.47
2019-03-20T11:05:22.800Z,44.77
2019-03-20T11:07:51.251Z,38.97
2019-03-20T11:10:40.632Z,40.90
2019-03-20T11:13:09.058Z,41.70
2019-03-20T11:15:37.562Z,39.03
2019-03-20T11:18:06.051Z,45.43
2019-03-20T11:20:34.472Z,39.67
2019-03-20T11:23:02.923Z,35.53
2019-03-20T11:25:50.723Z,33.43
2019-03-20T11:28:19.141Z,31.83
2019-03-20T11:31:06.925Z,35.50
2019-03-20T11:33:35.335Z,30.20
2019-03-20T11:36:23.149Z,34.13
2019-03-20T11:38:51.639Z,40.40
2019-03-20T11:41:39.451Z,41.40
2019-03-20T11:44:07.926Z,39.03
2019-03-20T11:46:36.377Z,44.33
2019-03-20T11:49:04.870Z,36.97
2019-03-20T11:51:33.349Z,37.50
2019-03-20T11:54:01.916Z,36.57
2019-03-20T11:56:30.373Z,34.17
2019-03-20T11:58:58.824Z,38.33
2019-03-20T12:01:27.242Z,35.47
2019-03-20T12:03:55.780Z,30.13
2019-03-20T12:06:24.208Z,41.07
2019-03-20T12:08:52.657Z,34.77
2019-03-20T12:11:21.454Z,34.37
2019-03-20T12:14:09.818Z,35.83
2019-03-20T12:16:46.247Z,33.63
2019-03-20T12:19:14.705Z,27.77
2019-03-20T12:21:43.123Z,42.30
2019-03-20T12:24:11.583Z,29.50
2019-03-20T12:26:59.371Z,24.97
2019-03-20T12:29:27.821Z,37.93
2019-03-20T12:32:15.575Z,32.50
2019-03-20T12:35:03.363Z,32.00
2019-03-20T12:37:31.805Z,33.77
2019-03-20T12:40:00.327Z,32.90
2019-03-20T12:42:28.822Z,31.43
2019-03-20T12:44:57.241Z,43.50
2019-03-20T12:47:25.683Z,38.03
2019-03-20T12:49:59.600Z,33.80
2019-03-20T12:52:28.071Z,35.13
2019-03-20T12:54:56.514Z,37.57
2019-03-20T12:57:24.973Z,30.47
2019-03-20T12:59:53.430Z,32.00
2019-03-20T13:02:21.844Z,40.17
2019-03-20T13:04:50.298Z,33.07
2019-03-20T13:07:18.737Z,38.37
2019-03-20T13:09:47.322Z,35.53
2019-03-20T13:12:15.847Z,37.23
2019-03-20T13:14:44.278Z,30.77
2019-03-20T13:17:12.728Z,44.77
2019-03-20T13:20:00.506Z,29.83
2019-03-20T13:22:28.941Z,42.20
2019-03-20T13:24:57.364Z,41.13
2019-03-20T13:27:25.819Z,37.93
2019-03-20T13:29:54.243Z,46.23
2019-03-20T13:32:22.702Z,30.20
2019-03-20T13:34:51.154Z,41.13
2019-03-20T13:37:19.579Z,30.20
2019-03-20T13:39:48.036Z,39.10
2019-03-20T13:42:16.526Z,42.13
2019-03-20T13:44:44.955Z,37.43
2019-03-20T13:47:13.414Z,46.00
2019-03-20T13:49:41.865Z,42.37
2019-03-20T13:52:10.288Z,47.70
2019-03-20T13:54:38.853Z,34.27
2019-03-20T13:57:07.294Z,39.57
2019-03-20T13:59:35.751Z,43.30
2019-03-20T14:02:04.196Z,40.47
2019-03-20T14:04:32.650Z,44.40
2019-03-20T14:07:01.112Z,38.10
2019-03-20T14:09:29.593Z,45.47
2019-03-20T14:12:17.370Z,53.37
2019-03-20T14:14:45.807Z,54.73
2019-03-20T14:17:14.258Z,42.17
2019-03-20T14:19:42.731Z,44.93
2019-03-20T14:22:11.210Z,41.40
2019-03-20T14:24:39.741Z,54.97
2019-03-20T14:27:08.285Z,38.33
2019-03-20T14:29:36.735Z,50.63
2019-03-20T14:32:05.159Z,49.77
2019-03-20T14:34:33.605Z,52.33
2019-03-20T14:37:02.023Z,50.33
2019-03-20T14:39:30.515Z,56.23
2019-03-20T14:41:58.966Z,54.30
2019-03-20T14:44:27.419Z,59.43
2019-03-20T14:46:55.935Z,52.03
2019-03-20T14:49:24.371Z,53.03
2019-03-20T14:51:52.836Z,50.57
2019-03-20T14:54:21.288Z,61.63
2019-03-20T14:56:49.793Z,59.83
2019-03-20T14:59:18.227Z,52.20
2019-03-20T15:01:46.647Z,53.37
2019-03-20T15:04:15.108Z,55.97
2019-03-20T15:06:43.596Z,57.87
2019-03-20T15:09:12.047Z,56.33
2019-03-20T15:11:40.802Z,58.77
2019-03-20T15:14:09.372Z,52.30
2019-03-20T15:16:37.819Z,57.97
2019-03-20T15:19:25.597Z,54.77
2019-03-20T15:22:05.828Z,62.93
2019-03-20T15:24:34.280Z,62.40
2019-03-20T15:27:02.715Z,61.83
2019-03-20T15:29:50.508Z,51.37
2019-03-20T15:32:18.960Z,50.50
2019-03-20T15:34:47.409Z,52.90
2019-03-20T15:37:18.788Z,54.30
2019-03-20T15:39:47.240Z,52.47
2019-03-20T15:42:35.036Z,54.67
2019-03-20T15:45:04.592Z,57.83
2019-03-20T15:47:33.060Z,53.33
2019-03-20T15:50:22.361Z,46.03
2019-03-20T15:52:50.819Z,49.67
2019-03-20T15:55:39.597Z,48.50
2019-03-20T15:58:08.103Z,55.27
2019-03-20T16:00:36.570Z,50.80
2019-03-20T16:03:19.516Z,47.40
2019-03-20T16:05:47.965Z,57.20
2019-03-20T16:08:16.399Z,56.20
2019-03-20T16:11:06.786Z,51.73
2019-03-20T16:13:34.376Z,56.80
2019-03-20T16:16:03.555Z,52.30
2019-03-20T16:18:32.018Z,59.57
2019-03-20T16:21:00.443Z,55.67
2019-03-20T16:23:28.897Z,56.03
2019-03-20T16:25:57.320Z,63.00
2019-03-20T16:28:25.859Z,59.90
2019-03-20T16:30:54.825Z,69.13
2019-03-20T16:33:23.326Z,52.63
2019-03-20T16:36:11.114Z,64.10
2019-03-20T16:38:39.552Z,61.57
2019-03-20T16:41:16.494Z,58.30
2019-03-20T16:43:38.167Z,57.67
2019-03-20T16:46:06.612Z,57.50
2019-03-20T16:48:35.203Z,54.63
2019-03-20T16:51:03.626Z,57.73
2019-03-20T16:53:32.054Z,54.63
2019-03-20T16:56:00.496Z,57.40
2019-03-20T16:58:30.157Z,54.93
2019-03-20T17:00:58.594Z,56.47
2019-03-20T17:03:27.167Z,53.27
2019-03-20T17:05:55.651Z,85.63
2019-03-20T17:08:24.273Z,60.97
2019-03-20T17:10:52.894Z,54.70
2019-03-20T17:13:21.390Z,54.17
2019-03-20T17:15:50.216Z,54.93
2019-03-20T17:18:22.254Z,56.93
2019-03-20T17:20:51.031Z,60.80
2019-03-20T17:23:38.855Z,64.73
2019-03-20T17:26:07.302Z,53.23
2019-03-20T17:28:35.731Z,49.27
2019-03-20T17:31:04.442Z,56.20
2019-03-20T17:33:52.230Z,57.07
2019-03-20T17:36:20.658Z,54.90
2019-03-20T17:38:49.211Z,62.90
2019-03-20T17:41:37.014Z,49.77
2019-03-20T17:44:05.567Z,62.90
2019-03-20T17:46:33.978Z,55.10
2019-03-20T17:49:02.422Z,55.83
2019-03-20T17:51:30.885Z,60.33
2019-03-20T17:53:59.345Z,61.80
2019-03-20T17:56:27.858Z,62.77
2019-03-20T17:58:56.363Z,64.60
2019-03-20T18:01:24.794Z,73.30
2019-03-20T18:04:12.628Z,73.97
2019-03-20T18:06:41.132Z,66.97
2019-03-20T18:09:09.547Z,68.73
2019-03-20T18:11:47.108Z,68.53
2019-03-20T18:14:08.143Z,68.47
2019-03-20T18:16:36.645Z,69.17
2019-03-20T18:19:05.163Z,76.37
2019-03-20T18:21:33.622Z,81.30
2019-03-20T18:24:02.064Z,77.17
2019-03-20T18:26:30.591Z,81.30
2019-03-20T18:29:18.464Z,70.03
2019-03-20T18:31:47.034Z,78.80
2019-03-20T18:34:15.518Z,76.17
2019-03-20T18:36:43.955Z,76.77
2019-03-20T18:39:12.516Z,84.80
2019-03-20T18:41:40.997Z,77.37
2019-03-20T18:44:09.788Z,78.87
2019-03-20T18:46:38.268Z,83.87
2019-03-20T18:49:06.768Z,78.93
2019-03-20T18:51:35.216Z,79.73
2019-03-20T18:54:03.754Z,79.83
2019-03-20T18:56:32.259Z,70.30
2019-03-20T18:59:02.778Z,75.33
2019-03-20T19:01:30.919Z,90.87
2019-03-20T19:03:59.347Z,72.43
2019-03-20T19:06:30.248Z,70.53
2019-03-20T19:08:58.764Z,66.37
2019-03-20T19:11:46.599Z,75.00
2019-03-20T19:14:27.119Z,97.93
2019-03-20T19:17:07.741Z,109.87
2019-03-20T19:19:36.703Z,99.63
2019-03-20T19:22:05.183Z,65.13
2019-03-20T19:24:33.612Z,66.03
2019-03-20T19:27:21.403Z,64.50
2019-03-20T19:29:49.873Z,64.00
2019-03-20T19:32:18.295Z,66.73
2019-03-20T19:34:46.731Z,63.27
2019-03-20T19:37:15.196Z,66.53
2019-03-20T19:40:03.250Z,78.07
2019-03-20T19:42:31.677Z,65.87
2019-03-20T19:45:19.495Z,59.63
2019-03-20T19:47:47.954Z,59.70
2019-03-20T19:50:20.395Z,67.40
2019-03-20T19:52:48.821Z,59.23
2019-03-20T19:55:18.371Z,72.43
2019-03-20T19:57:46.795Z,64.93
2019-03-20T20:00:22.695Z,63.93
2019-03-20T20:02:51.116Z,59.53
2019-03-20T20:05:19.713Z,60.77
2019-03-20T20:07:48.151Z,58.53
2019-03-20T20:10:17.938Z,59.10
2019-03-20T20:12:47.551Z,61.10
2019-03-20T20:15:24.565Z,65.43
2019-03-20T20:17:53.483Z,61.10
2019-03-20T20:20:46.605Z,60.70
2019-03-20T20:23:21.639Z,73.20
2019-03-20T20:26:09.483Z,60.17
2019-03-20T20:28:57.465Z,62.07
2019-03-20T20:31:26.181Z,67.40
2019-03-20T20:34:14.339Z,68.57
2019-03-20T20:36:42.937Z,59.40
2019-03-20T20:39:11.827Z,59.97
2019-03-20T20:41:59.691Z,60.33
2019-03-20T20:44:28.304Z,68.33
2019-03-20T20:46:56.823Z,76.47
2019-03-20T20:49:25.338Z,67.00
2019-03-20T20:51:53.816Z,71.53
2019-03-20T20:54:29.631Z,72.43
2019-03-20T20:56:58.087Z,81.00
2019-03-20T20:59:28.216Z,75.20
2019-03-20T21:01:56.875Z,75.13
2019-03-20T21:04:25.397Z,68.30
2019-03-20T21:06:54.011Z,66.47
2019-03-20T21:09:22.668Z,87.67
2019-03-20T21:11:51.261Z,78.30
2019-03-20T21:14:19.827Z,70.70
2019-03-20T21:16:48.293Z,74.37
2019-03-20T21:19:22.707Z,74.60
2019-03-20T21:22:13.839Z,64.87
2019-03-20T21:24:42.433Z,82.57
2019-03-20T21:27:20.092Z,77.77
2019-03-20T21:30:15.987Z,74.70
2019-03-20T21:32:52.687Z,84.53
2019-03-20T21:35:40.769Z,77.17
2019-03-20T21:38:09.831Z,73.63
2019-03-20T21:40:53.215Z,73.73
2019-03-20T21:44:00.776Z,77.43
2019-03-20T21:46:50.584Z,94.90
2019-03-20T21:49:19.030Z,77.93
2019-03-20T21:51:47.527Z,74.83
2019-03-20T21:54:34.231Z,79.60
2019-03-20T21:57:05.755Z,76.17
2019-03-20T21:59:39.923Z,69.70
2019-03-20T22:02:39.644Z,81.07
2019-03-20T22:05:45.467Z,83.33
2019-03-20T22:08:26.556Z,73.67
2019-03-20T22:11:17.803Z,70.97
2019-03-20T22:13:52.356Z,67.43
2019-03-20T22:16:53.813Z,78.03
2019-03-20T22:19:50.065Z,70.80
2019-03-20T22:22:39.478Z,81.47
2019-03-20T22:25:42.703Z,88.73
2019-03-20T22:31:19.383Z,86.50
2019-03-20T22:34:25.799Z,76.47
2019-03-20T22:36:54.509Z,85.03
2019-03-20T22:39:45.140Z,83.00
2019-03-20T22:42:34.470Z,75.60
2019-03-20T22:45:14.856Z,82.87
2019-03-20T22:47:55.579Z,79.37
2019-03-20T22:50:44.888Z,80.83
2019-03-20T22:53:35.864Z,81.77
2019-03-20T22:56:15.909Z,88.00
2019-03-20T22:58:46.344Z,77.57
2019-03-20T23:01:32.236Z,75.67
2019-03-20T23:04:15.719Z,80.33
2019-03-20T23:06:44.153Z,78.07
2019-03-20T23:09:12.676Z,90.53
2019-03-20T23:11:41.101Z,75.97
2019-03-20T23:14:09.547Z,82.77
2019-03-20T23:16:38.067Z,83.83
2019-03-20T23:19:06.571Z,79.37
2019-03-20T23:21:35.099Z,84.27
2019-03-20T23:24:03.587Z,90.20
2019-03-20T23:26:32.021Z,76.70
2019-03-20T23:29:00.449Z,71.43
2019-03-20T23:34:23.821Z,74.03
2019-03-20T23:37:11.613Z,72.47
2019-03-20T23:39:40.036Z,76.63
2019-03-20T23:42:08.468Z,69.40
2019-03-20T23:44:36.914Z,71.87
2019-03-20T23:47:05.385Z,66.93
2019-03-20T23:49:33.855Z,68.80
2019-03-20T23:52:02.272Z,83.73
2019-03-20T23:54:50.072Z,74.87
2019-03-20T23:57:18.618Z,81.17
